sensor_id;sensor_type;location;lat;lon;timestamp;P1;durP1;ratioP1;P2;durP2;ratioP2
21235;SDS011;10775;42.678;26.324;2022-09-23T00:00:19;0.88;;;0.60;;
21235;SDS011;10775;42.678;26.324;2022-09-23T00:02:45;1.13;;;0.70;;
21235;SDS011;10775;42.678;26.324;2022-09-23T00:05:16;0.65;;;0.65;;
21235;SDS011;10775;42.678;26.324;2022-09-23T00:07:42;1.20;;;0.88;;
21235;SDS011;10775;42.678;26.324;2022-09-23T00:10:09;0.93;;;0.68;;
21235;SDS011;10775;42.678;26.324;2022-09-23T00:12:35;1.60;;;0.70;;
21235;SDS011;10775;42.678;26.324;2022-09-23T00:15:00;0.93;;;0.60;;
21235;SDS011;10775;42.678;26.324;2022-09-23T00:17:26;0.88;;;0.70;;
21235;SDS011;10775;42.678;26.324;2022-09-23T00:19:52;1.95;;;0.80;;
21235;SDS011;10775;42.678;26.324;2022-09-23T00:22:19;1.08;;;0.90;;
21235;SDS011;10775;42.678;26.324;2022-09-23T00:24:46;0.70;;;0.70;;
21235;SDS011;10775;42.678;26.324;2022-09-23T00:27:11;1.15;;;0.82;;
21235;SDS011;10775;42.678;26.324;2022-09-23T00:29:37;1.38;;;0.70;;
21235;SDS011;10775;42.678;26.324;2022-09-23T00:32:03;1.10;;;0.90;;
21235;SDS011;10775;42.678;26.324;2022-09-23T00:34:28;2.25;;;0.77;;
21235;SDS011;10775;42.678;26.324;2022-09-23T00:36:54;1.10;;;0.80;;
21235;SDS011;10775;42.678;26.324;2022-09-23T00:39:21;1.00;;;0.70;;
21235;SDS011;10775;42.678;26.324;2022-09-23T00:41:51;0.77;;;0.70;;
21235;SDS011;10775;42.678;26.324;2022-09-23T00:47:04;2.28;;;0.88;;
21235;SDS011;10775;42.678;26.324;2022-09-23T00:49:34;0.90;;;0.80;;
21235;SDS011;10775;42.678;26.324;2022-09-23T00:52:01;1.60;;;1.08;;
21235;SDS011;10775;42.678;26.324;2022-09-23T00:54:34;2.95;;;1.60;;
21235;SDS011;10775;42.678;26.324;2022-09-23T00:57:00;1.95;;;0.90;;
21235;SDS011;10775;42.678;26.324;2022-09-23T00:59:27;2.58;;;1.45;;
21235;SDS011;10775;42.678;26.324;2022-09-23T01:01:54;3.00;;;2.05;;
21235;SDS011;10775;42.678;26.324;2022-09-23T01:04:22;1.38;;;0.98;;
21235;SDS011;10775;42.678;26.324;2022-09-23T01:06:49;1.65;;;1.20;;
21235;SDS011;10775;42.678;26.324;2022-09-23T01:09:15;3.33;;;1.77;;
21235;SDS011;10775;42.678;26.324;2022-09-23T01:17:36;1.42;;;1.33;;
21235;SDS011;10775;42.678;26.324;2022-09-23T01:27:50;1.55;;;1.42;;
21235;SDS011;10775;42.678;26.324;2022-09-23T01:33:23;2.30;;;1.73;;
21235;SDS011;10775;42.678;26.324;2022-09-23T01:38:37;3.70;;;1.80;;
21235;SDS011;10775;42.678;26.324;2022-09-23T01:44:03;1.65;;;0.95;;
21235;SDS011;10775;42.678;26.324;2022-09-23T01:46:36;1.00;;;0.90;;
21235;SDS011;10775;42.678;26.324;2022-09-23T01:49:10;3.78;;;1.50;;
21235;SDS011;10775;42.678;26.324;2022-09-23T01:51:48;4.93;;;1.13;;
21235;SDS011;10775;42.678;26.324;2022-09-23T01:54:21;3.13;;;1.40;;
21235;SDS011;10775;42.678;26.324;2022-09-23T01:57:03;2.78;;;1.65;;
21235;SDS011;10775;42.678;26.324;2022-09-23T01:59:40;1.60;;;1.20;;
21235;SDS011;10775;42.678;26.324;2022-09-23T02:02:54;1.02;;;0.93;;
21235;SDS011;10775;42.678;26.324;2022-09-23T02:05:24;2.25;;;1.40;;
21235;SDS011;10775;42.678;26.324;2022-09-23T02:08:16;1.17;;;1.08;;
21235;SDS011;10775;42.678;26.324;2022-09-23T02:11:09;0.98;;;0.80;;
21235;SDS011;10775;42.678;26.324;2022-09-23T02:13:40;1.30;;;0.90;;
21235;SDS011;10775;42.678;26.324;2022-09-23T02:16:14;1.27;;;0.77;;
21235;SDS011;10775;42.678;26.324;2022-09-23T02:21:24;2.25;;;1.73;;
21235;SDS011;10775;42.678;26.324;2022-09-23T02:23:56;1.17;;;0.98;;
21235;SDS011;10775;42.678;26.324;2022-09-23T02:26:52;1.90;;;1.65;;
21235;SDS011;10775;42.678;26.324;2022-09-23T02:29:27;1.25;;;0.82;;
21235;SDS011;10775;42.678;26.324;2022-09-23T02:35:00;1.85;;;0.95;;
21235;SDS011;10775;42.678;26.324;2022-09-23T02:40:25;2.22;;;1.58;;
21235;SDS011;10775;42.678;26.324;2022-09-23T02:45:41;2.03;;;1.60;;
21235;SDS011;10775;42.678;26.324;2022-09-23T02:48:08;1.35;;;1.10;;
21235;SDS011;10775;42.678;26.324;2022-09-23T02:50:38;3.30;;;1.90;;
21235;SDS011;10775;42.678;26.324;2022-09-23T02:53:04;1.00;;;0.90;;
21235;SDS011;10775;42.678;26.324;2022-09-23T02:55:31;1.60;;;1.50;;
21235;SDS011;10775;42.678;26.324;2022-09-23T02:58:00;1.25;;;1.00;;
21235;SDS011;10775;42.678;26.324;2022-09-23T03:03:18;2.47;;;1.90;;
21235;SDS011;10775;42.678;26.324;2022-09-23T03:06:20;2.22;;;1.92;;
21235;SDS011;10775;42.678;26.324;2022-09-23T03:08:54;2.63;;;1.30;;
21235;SDS011;10775;42.678;26.324;2022-09-23T03:11:26;1.50;;;0.95;;
21235;SDS011;10775;42.678;26.324;2022-09-23T03:13:54;1.77;;;1.30;;
21235;SDS011;10775;42.678;26.324;2022-09-23T03:19:07;1.50;;;1.10;;
21235;SDS011;10775;42.678;26.324;2022-09-23T03:21:58;1.02;;;0.82;;
21235;SDS011;10775;42.678;26.324;2022-09-23T03:24:54;1.35;;;1.23;;
21235;SDS011;10775;42.678;26.324;2022-09-23T03:27:27;1.45;;;1.13;;
21235;SDS011;10775;42.678;26.324;2022-09-23T03:29:56;1.80;;;1.45;;
21235;SDS011;10775;42.678;26.324;2022-09-23T03:32:23;1.85;;;1.23;;
21235;SDS011;10775;42.678;26.324;2022-09-23T03:34:52;1.40;;;1.30;;
21235;SDS011;10775;42.678;26.324;2022-09-23T03:37:38;2.83;;;1.60;;
21235;SDS011;10775;42.678;26.324;2022-09-23T03:40:17;1.38;;;1.27;;
21235;SDS011;10775;42.678;26.324;2022-09-23T03:42:45;1.60;;;1.38;;
21235;SDS011;10775;42.678;26.324;2022-09-23T03:45:14;1.23;;;1.05;;
21235;SDS011;10775;42.678;26.324;2022-09-23T03:50:09;1.10;;;0.95;;
21235;SDS011;10775;42.678;26.324;2022-09-23T03:52:37;1.52;;;1.10;;
21235;SDS011;10775;42.678;26.324;2022-09-23T03:55:04;2.13;;;1.13;;
21235;SDS011;10775;42.678;26.324;2022-09-23T03:57:31;2.03;;;1.33;;
21235;SDS011;10775;42.678;26.324;2022-09-23T03:59:57;3.00;;;2.03;;
21235;SDS011;10775;42.678;26.324;2022-09-23T04:02:22;1.70;;;0.93;;
21235;SDS011;10775;42.678;26.324;2022-09-23T04:04:48;1.17;;;1.05;;
21235;SDS011;10775;42.678;26.324;2022-09-23T04:07:14;1.90;;;1.10;;
21235;SDS011;10775;42.678;26.324;2022-09-23T04:09:40;1.48;;;1.27;;
21235;SDS011;10775;42.678;26.324;2022-09-23T04:12:06;1.60;;;1.23;;
21235;SDS011;10775;42.678;26.324;2022-09-23T04:14:33;1.50;;;1.05;;
21235;SDS011;10775;42.678;26.324;2022-09-23T04:16:59;2.30;;;1.35;;
21235;SDS011;10775;42.678;26.324;2022-09-23T04:19:25;1.17;;;0.93;;
21235;SDS011;10775;42.678;26.324;2022-09-23T04:21:50;1.95;;;1.20;;
21235;SDS011;10775;42.678;26.324;2022-09-23T04:24:16;3.25;;;1.15;;
21235;SDS011;10775;42.678;26.324;2022-09-23T04:26:42;1.75;;;1.50;;
21235;SDS011;10775;42.678;26.324;2022-09-23T04:29:08;2.13;;;1.17;;
21235;SDS011;10775;42.678;26.324;2022-09-23T04:31:35;1.90;;;1.23;;
21235;SDS011;10775;42.678;26.324;2022-09-23T04:34:00;2.42;;;1.35;;
21235;SDS011;10775;42.678;26.324;2022-09-23T04:36:26;1.50;;;1.20;;
21235;SDS011;10775;42.678;26.324;2022-09-23T04:38:53;2.53;;;1.30;;
21235;SDS011;10775;42.678;26.324;2022-09-23T04:41:18;1.58;;;1.20;;
21235;SDS011;10775;42.678;26.324;2022-09-23T04:43:45;2.25;;;1.10;;
21235;SDS011;10775;42.678;26.324;2022-09-23T04:46:12;1.55;;;1.30;;
21235;SDS011;10775;42.678;26.324;2022-09-23T04:48:40;1.48;;;1.30;;
21235;SDS011;10775;42.678;26.324;2022-09-23T04:51:07;1.60;;;1.30;;
21235;SDS011;10775;42.678;26.324;2022-09-23T04:53:35;1.92;;;1.45;;
21235;SDS011;10775;42.678;26.324;2022-09-23T04:58:29;1.38;;;1.10;;
21235;SDS011;10775;42.678;26.324;2022-09-23T05:00:55;1.50;;;1.20;;
21235;SDS011;10775;42.678;26.324;2022-09-23T05:03:22;1.48;;;1.23;;
21235;SDS011;10775;42.678;26.324;2022-09-23T05:05:48;4.68;;;2.15;;
21235;SDS011;10775;42.678;26.324;2022-09-23T05:08:14;5.65;;;3.00;;
21235;SDS011;10775;42.678;26.324;2022-09-23T05:10:40;5.88;;;3.28;;
21235;SDS011;10775;42.678;26.324;2022-09-23T05:13:06;5.32;;;3.03;;
21235;SDS011;10775;42.678;26.324;2022-09-23T05:15:33;6.25;;;2.75;;
21235;SDS011;10775;42.678;26.324;2022-09-23T05:17:58;5.18;;;2.92;;
21235;SDS011;10775;42.678;26.324;2022-09-23T05:20:24;4.78;;;2.88;;
21235;SDS011;10775;42.678;26.324;2022-09-23T05:22:50;7.03;;;3.38;;
21235;SDS011;10775;42.678;26.324;2022-09-23T05:25:19;7.23;;;3.33;;
21235;SDS011;10775;42.678;26.324;2022-09-23T05:27:46;4.68;;;3.08;;
21235;SDS011;10775;42.678;26.324;2022-09-23T05:30:12;4.40;;;2.53;;
21235;SDS011;10775;42.678;26.324;2022-09-23T05:32:37;3.25;;;2.38;;
21235;SDS011;10775;42.678;26.324;2022-09-23T05:35:03;6.20;;;2.92;;
21235;SDS011;10775;42.678;26.324;2022-09-23T05:37:29;4.35;;;2.72;;
21235;SDS011;10775;42.678;26.324;2022-09-23T05:39:57;7.68;;;3.60;;
21235;SDS011;10775;42.678;26.324;2022-09-23T05:42:22;13.85;;;6.07;;
21235;SDS011;10775;42.678;26.324;2022-09-23T05:44:48;7.13;;;3.45;;
21235;SDS011;10775;42.678;26.324;2022-09-23T05:47:13;5.72;;;3.45;;
21235;SDS011;10775;42.678;26.324;2022-09-23T05:49:39;6.57;;;2.13;;
21235;SDS011;10775;42.678;26.324;2022-09-23T05:52:05;5.97;;;2.20;;
21235;SDS011;10775;42.678;26.324;2022-09-23T05:54:31;5.13;;;2.30;;
21235;SDS011;10775;42.678;26.324;2022-09-23T05:56:56;5.00;;;2.40;;
21235;SDS011;10775;42.678;26.324;2022-09-23T05:59:22;4.38;;;2.50;;
21235;SDS011;10775;42.678;26.324;2022-09-23T06:01:48;4.85;;;2.47;;
21235;SDS011;10775;42.678;26.324;2022-09-23T06:04:13;5.65;;;2.90;;
21235;SDS011;10775;42.678;26.324;2022-09-23T06:06:40;4.10;;;2.10;;
21235;SDS011;10775;42.678;26.324;2022-09-23T06:09:10;5.37;;;2.40;;
21235;SDS011;10775;42.678;26.324;2022-09-23T06:11:40;5.35;;;2.95;;
21235;SDS011;10775;42.678;26.324;2022-09-23T06:14:06;14.70;;;8.15;;
21235;SDS011;10775;42.678;26.324;2022-09-23T06:16:35;6.97;;;3.20;;
21235;SDS011;10775;42.678;26.324;2022-09-23T06:19:01;8.07;;;3.38;;
21235;SDS011;10775;42.678;26.324;2022-09-23T06:21:29;6.82;;;3.38;;
21235;SDS011;10775;42.678;26.324;2022-09-23T06:23:56;6.32;;;3.55;;
21235;SDS011;10775;42.678;26.324;2022-09-23T06:26:24;7.47;;;3.38;;
21235;SDS011;10775;42.678;26.324;2022-09-23T06:28:50;8.15;;;3.10;;
21235;SDS011;10775;42.678;26.324;2022-09-23T06:31:16;9.88;;;5.60;;
21235;SDS011;10775;42.678;26.324;2022-09-23T06:33:43;7.55;;;2.70;;
21235;SDS011;10775;42.678;26.324;2022-09-23T06:36:10;5.65;;;3.70;;
21235;SDS011;10775;42.678;26.324;2022-09-23T06:38:37;10.57;;;5.88;;
21235;SDS011;10775;42.678;26.324;2022-09-23T06:41:04;4.57;;;2.97;;
21235;SDS011;10775;42.678;26.324;2022-09-23T06:43:30;9.63;;;5.90;;
21235;SDS011;10775;42.678;26.324;2022-09-23T06:45:56;12.43;;;5.05;;
21235;SDS011;10775;42.678;26.324;2022-09-23T06:48:23;10.10;;;3.17;;
21235;SDS011;10775;42.678;26.324;2022-09-23T06:50:50;9.68;;;3.55;;
21235;SDS011;10775;42.678;26.324;2022-09-23T06:53:18;8.27;;;3.63;;
21235;SDS011;10775;42.678;26.324;2022-09-23T06:55:45;7.30;;;3.88;;
21235;SDS011;10775;42.678;26.324;2022-09-23T06:58:10;4.55;;;2.88;;
21235;SDS011;10775;42.678;26.324;2022-09-23T07:00:36;5.22;;;2.30;;
21235;SDS011;10775;42.678;26.324;2022-09-23T07:03:11;4.78;;;2.53;;
21235;SDS011;10775;42.678;26.324;2022-09-23T07:05:37;5.38;;;2.60;;
21235;SDS011;10775;42.678;26.324;2022-09-23T07:08:05;4.97;;;2.50;;
21235;SDS011;10775;42.678;26.324;2022-09-23T07:10:34;2.85;;;2.40;;
21235;SDS011;10775;42.678;26.324;2022-09-23T07:13:00;2.92;;;2.05;;
21235;SDS011;10775;42.678;26.324;2022-09-23T07:15:27;2.95;;;2.20;;
21235;SDS011;10775;42.678;26.324;2022-09-23T07:17:53;3.17;;;2.20;;
21235;SDS011;10775;42.678;26.324;2022-09-23T07:20:19;6.57;;;2.22;;
21235;SDS011;10775;42.678;26.324;2022-09-23T07:22:49;4.30;;;2.40;;
21235;SDS011;10775;42.678;26.324;2022-09-23T07:25:16;6.45;;;2.35;;
21235;SDS011;10775;42.678;26.324;2022-09-23T07:27:43;4.40;;;2.10;;
21235;SDS011;10775;42.678;26.324;2022-09-23T07:30:12;4.68;;;2.75;;
21235;SDS011;10775;42.678;26.324;2022-09-23T07:32:38;20.58;;;14.18;;
21235;SDS011;10775;42.678;26.324;2022-09-23T07:35:04;4.88;;;2.47;;
21235;SDS011;10775;42.678;26.324;2022-09-23T07:37:30;5.57;;;2.15;;
21235;SDS011;10775;42.678;26.324;2022-09-23T07:39:56;2.85;;;2.20;;
21235;SDS011;10775;42.678;26.324;2022-09-23T07:42:22;3.05;;;1.80;;
21235;SDS011;10775;42.678;26.324;2022-09-23T07:44:47;3.33;;;2.00;;
21235;SDS011;10775;42.678;26.324;2022-09-23T07:47:13;4.32;;;2.35;;
21235;SDS011;10775;42.678;26.324;2022-09-23T07:49:39;3.20;;;2.20;;
21235;SDS011;10775;42.678;26.324;2022-09-23T07:52:05;4.18;;;2.35;;
21235;SDS011;10775;42.678;26.324;2022-09-23T07:54:31;6.50;;;4.10;;
21235;SDS011;10775;42.678;26.324;2022-09-23T07:56:57;8.75;;;3.78;;
21235;SDS011;10775;42.678;26.324;2022-09-23T07:59:23;9.77;;;4.03;;
21235;SDS011;10775;42.678;26.324;2022-09-23T08:01:51;4.63;;;2.53;;
21235;SDS011;10775;42.678;26.324;2022-09-23T08:04:19;2.20;;;1.88;;
21235;SDS011;10775;42.678;26.324;2022-09-23T08:06:47;3.22;;;2.33;;
21235;SDS011;10775;42.678;26.324;2022-09-23T08:09:15;3.63;;;2.17;;
21235;SDS011;10775;42.678;26.324;2022-09-23T08:11:42;2.17;;;1.75;;
21235;SDS011;10775;42.678;26.324;2022-09-23T08:14:08;5.78;;;2.13;;
21235;SDS011;10775;42.678;26.324;2022-09-23T08:16:35;4.15;;;2.20;;
21235;SDS011;10775;42.678;26.324;2022-09-23T08:19:01;4.88;;;2.50;;
21235;SDS011;10775;42.678;26.324;2022-09-23T08:21:27;3.10;;;2.30;;
21235;SDS011;10775;42.678;26.324;2022-09-23T08:23:53;5.60;;;3.00;;
21235;SDS011;10775;42.678;26.324;2022-09-23T08:26:19;6.15;;;3.55;;
21235;SDS011;10775;42.678;26.324;2022-09-23T08:28:45;5.05;;;2.08;;
21235;SDS011;10775;42.678;26.324;2022-09-23T08:31:12;5.40;;;2.92;;
21235;SDS011;10775;42.678;26.324;2022-09-23T08:33:38;3.58;;;2.13;;
21235;SDS011;10775;42.678;26.324;2022-09-23T08:36:05;4.70;;;3.40;;
21235;SDS011;10775;42.678;26.324;2022-09-23T08:38:31;3.58;;;1.95;;
21235;SDS011;10775;42.678;26.324;2022-09-23T08:41:03;2.65;;;1.98;;
21235;SDS011;10775;42.678;26.324;2022-09-23T08:43:42;3.35;;;2.30;;
21235;SDS011;10775;42.678;26.324;2022-09-23T08:46:11;4.40;;;2.95;;
21235;SDS011;10775;42.678;26.324;2022-09-23T08:48:45;4.53;;;2.20;;
21235;SDS011;10775;42.678;26.324;2022-09-23T08:51:32;3.97;;;2.55;;
21235;SDS011;10775;42.678;26.324;2022-09-23T08:54:04;2.28;;;1.90;;
21235;SDS011;10775;42.678;26.324;2022-09-23T08:56:29;7.03;;;4.93;;
21235;SDS011;10775;42.678;26.324;2022-09-23T08:59:40;3.97;;;2.65;;
21235;SDS011;10775;42.678;26.324;2022-09-23T09:02:12;3.10;;;2.10;;
21235;SDS011;10775;42.678;26.324;2022-09-23T09:04:48;1.67;;;1.30;;
21235;SDS011;10775;42.678;26.324;2022-09-23T09:07:19;3.83;;;2.30;;
21235;SDS011;10775;42.678;26.324;2022-09-23T09:10:32;2.53;;;2.20;;
21235;SDS011;10775;42.678;26.324;2022-09-23T09:12:49;6.47;;;4.82;;
21235;SDS011;10775;42.678;26.324;2022-09-23T09:15:25;3.28;;;2.15;;
21235;SDS011;10775;42.678;26.324;2022-09-23T09:17:59;3.05;;;2.03;;
21235;SDS011;10775;42.678;26.324;2022-09-23T09:20:46;2.95;;;2.00;;
21235;SDS011;10775;42.678;26.324;2022-09-23T09:26:33;3.17;;;1.70;;
21235;SDS011;10775;42.678;26.324;2022-09-23T09:29:00;2.80;;;1.48;;
21235;SDS011;10775;42.678;26.324;2022-09-23T09:36:53;2.78;;;1.70;;
21235;SDS011;10775;42.678;26.324;2022-09-23T09:39:32;2.17;;;1.40;;
21235;SDS011;10775;42.678;26.324;2022-09-23T09:41:59;1.95;;;1.38;;
21235;SDS011;10775;42.678;26.324;2022-09-23T09:50:07;2.40;;;1.70;;
21235;SDS011;10775;42.678;26.324;2022-09-23T09:52:38;2.30;;;1.88;;
21235;SDS011;10775;42.678;26.324;2022-09-23T09:57:54;5.38;;;3.63;;
21235;SDS011;10775;42.678;26.324;2022-09-23T10:05:51;2.75;;;1.88;;
21235;SDS011;10775;42.678;26.324;2022-09-23T10:13:24;2.55;;;2.15;;
21235;SDS011;10775;42.678;26.324;2022-09-23T10:15:51;2.50;;;1.77;;
21235;SDS011;10775;42.678;26.324;2022-09-23T10:18:25;3.03;;;2.15;;
21235;SDS011;10775;42.678;26.324;2022-09-23T10:21:00;3.65;;;2.00;;
21235;SDS011;10775;42.678;26.324;2022-09-23T10:23:32;3.42;;;2.30;;
21235;SDS011;10775;42.678;26.324;2022-09-23T10:26:05;4.47;;;2.33;;
21235;SDS011;10775;42.678;26.324;2022-09-23T10:28:40;2.75;;;1.77;;
21235;SDS011;10775;42.678;26.324;2022-09-23T10:31:11;2.95;;;2.10;;
21235;SDS011;10775;42.678;26.324;2022-09-23T10:33:47;2.80;;;2.05;;
21235;SDS011;10775;42.678;26.324;2022-09-23T10:36:14;3.38;;;2.47;;
21235;SDS011;10775;42.678;26.324;2022-09-23T10:38:41;3.47;;;2.40;;
21235;SDS011;10775;42.678;26.324;2022-09-23T10:41:29;3.05;;;2.25;;
21235;SDS011;10775;42.678;26.324;2022-09-23T10:47:28;2.80;;;1.98;;
21235;SDS011;10775;42.678;26.324;2022-09-23T10:56:17;6.13;;;3.00;;
21235;SDS011;10775;42.678;26.324;2022-09-23T11:02:01;5.20;;;2.40;;
21235;SDS011;10775;42.678;26.324;2022-09-23T11:12:44;4.75;;;3.03;;
21235;SDS011;10775;42.678;26.324;2022-09-23T11:15:25;6.90;;;4.15;;
21235;SDS011;10775;42.678;26.324;2022-09-23T11:21:20;6.93;;;4.32;;
21235;SDS011;10775;42.678;26.324;2022-09-23T11:29:58;5.18;;;3.70;;
21235;SDS011;10775;42.678;26.324;2022-09-23T11:35:18;5.53;;;3.90;;
21235;SDS011;10775;42.678;26.324;2022-09-23T11:37:51;5.55;;;3.95;;
21235;SDS011;10775;42.678;26.324;2022-09-23T11:40:33;11.75;;;5.50;;
21235;SDS011;10775;42.678;26.324;2022-09-23T11:54:22;24.58;;;15.02;;
21235;SDS011;10775;42.678;26.324;2022-09-23T11:56:45;20.23;;;14.05;;
21235;SDS011;10775;42.678;26.324;2022-09-23T12:01:44;21.33;;;14.13;;
21235;SDS011;10775;42.678;26.324;2022-09-23T12:06:53;16.88;;;11.38;;
21235;SDS011;10775;42.678;26.324;2022-09-23T12:20:27;12.27;;;8.10;;
21235;SDS011;10775;42.678;26.324;2022-09-23T12:26:04;11.80;;;6.82;;
21235;SDS011;10775;42.678;26.324;2022-09-23T12:28:42;10.88;;;7.15;;
21235;SDS011;10775;42.678;26.324;2022-09-23T12:31:15;11.37;;;6.80;;
21235;SDS011;10775;42.678;26.324;2022-09-23T12:33:54;5.95;;;4.63;;
21235;SDS011;10775;42.678;26.324;2022-09-23T12:36:31;9.50;;;4.55;;
21235;SDS011;10775;42.678;26.324;2022-09-23T12:39:06;7.60;;;4.90;;
21235;SDS011;10775;42.678;26.324;2022-09-23T12:41:41;8.65;;;5.18;;
21235;SDS011;10775;42.678;26.324;2022-09-23T12:46:42;4.80;;;3.78;;
21235;SDS011;10775;42.678;26.324;2022-09-23T12:49:22;4.70;;;3.97;;
21235;SDS011;10775;42.678;26.324;2022-09-23T12:52:35;6.38;;;4.10;;
21235;SDS011;10775;42.678;26.324;2022-09-23T12:54:38;5.22;;;3.40;;
21235;SDS011;10775;42.678;26.324;2022-09-23T12:57:09;4.57;;;3.28;;
21235;SDS011;10775;42.678;26.324;2022-09-23T12:59:56;5.75;;;3.58;;
21235;SDS011;10775;42.678;26.324;2022-09-23T13:02:32;5.63;;;2.95;;
21235;SDS011;10775;42.678;26.324;2022-09-23T13:07:51;3.28;;;2.40;;
21235;SDS011;10775;42.678;26.324;2022-09-23T13:10:46;5.63;;;4.05;;
21235;SDS011;10775;42.678;26.324;2022-09-23T13:15:51;6.90;;;5.28;;
21235;SDS011;10775;42.678;26.324;2022-09-23T13:20:48;5.15;;;3.35;;
21235;SDS011;10775;42.678;26.324;2022-09-23T13:23:24;3.28;;;2.65;;
21235;SDS011;10775;42.678;26.324;2022-09-23T13:26:00;8.73;;;3.90;;
21235;SDS011;10775;42.678;26.324;2022-09-23T13:28:37;6.13;;;3.72;;
21235;SDS011;10775;42.678;26.324;2022-09-23T13:31:14;5.07;;;4.05;;
21235;SDS011;10775;42.678;26.324;2022-09-23T13:33:50;6.65;;;3.58;;
21235;SDS011;10775;42.678;26.324;2022-09-23T13:36:24;5.30;;;3.58;;
21235;SDS011;10775;42.678;26.324;2022-09-23T13:38:50;7.53;;;4.00;;
21235;SDS011;10775;42.678;26.324;2022-09-23T13:41:17;5.97;;;3.25;;
21235;SDS011;10775;42.678;26.324;2022-09-23T13:46:23;6.97;;;3.78;;
21235;SDS011;10775;42.678;26.324;2022-09-23T13:48:52;5.20;;;3.33;;
21235;SDS011;10775;42.678;26.324;2022-09-23T13:51:22;7.80;;;3.13;;
21235;SDS011;10775;42.678;26.324;2022-09-23T13:53:51;5.18;;;3.10;;
21235;SDS011;10775;42.678;26.324;2022-09-23T13:56:19;33.25;;;4.50;;
21235;SDS011;10775;42.678;26.324;2022-09-23T13:58:46;32.70;;;5.00;;
21235;SDS011;10775;42.678;26.324;2022-09-23T14:01:29;12.43;;;3.88;;
21235;SDS011;10775;42.678;26.324;2022-09-23T14:03:57;11.05;;;4.03;;
21235;SDS011;10775;42.678;26.324;2022-09-23T14:06:24;10.93;;;2.40;;
21235;SDS011;10775;42.678;26.324;2022-09-23T14:08:52;23.33;;;9.63;;
21235;SDS011;10775;42.678;26.324;2022-09-23T14:11:20;9.98;;;2.97;;
21235;SDS011;10775;42.678;26.324;2022-09-23T14:13:54;7.97;;;2.55;;
21235;SDS011;10775;42.678;26.324;2022-09-23T14:16:21;8.38;;;2.08;;
21235;SDS011;10775;42.678;26.324;2022-09-23T14:18:50;3.80;;;2.30;;
21235;SDS011;10775;42.678;26.324;2022-09-23T14:24:11;2.88;;;2.00;;
21235;SDS011;10775;42.678;26.324;2022-09-23T14:27:54;5.38;;;2.63;;
21235;SDS011;10775;42.678;26.324;2022-09-23T14:29:55;6.90;;;2.30;;
21235;SDS011;10775;42.678;26.324;2022-09-23T14:32:23;7.15;;;2.30;;
21235;SDS011;10775;42.678;26.324;2022-09-23T14:35:03;2.58;;;1.90;;
21235;SDS011;10775;42.678;26.324;2022-09-23T14:41:10;2.05;;;1.88;;
21235;SDS011;10775;42.678;26.324;2022-09-23T14:43:19;4.07;;;1.83;;
21235;SDS011;10775;42.678;26.324;2022-09-23T14:45:49;4.47;;;1.88;;
21235;SDS011;10775;42.678;26.324;2022-09-23T14:48:37;3.60;;;2.40;;
21235;SDS011;10775;42.678;26.324;2022-09-23T14:51:03;3.75;;;2.15;;
21235;SDS011;10775;42.678;26.324;2022-09-23T14:53:34;6.78;;;1.77;;
21235;SDS011;10775;42.678;26.324;2022-09-23T15:01:52;3.88;;;1.85;;
21235;SDS011;10775;42.678;26.324;2022-09-23T15:04:05;5.97;;;1.60;;
21235;SDS011;10775;42.678;26.324;2022-09-23T15:06:41;3.97;;;1.70;;
21235;SDS011;10775;42.678;26.324;2022-09-23T15:09:16;4.75;;;1.70;;
21235;SDS011;10775;42.678;26.324;2022-09-23T15:11:49;2.58;;;1.35;;
21235;SDS011;10775;42.678;26.324;2022-09-23T15:14:16;3.75;;;1.70;;
21235;SDS011;10775;42.678;26.324;2022-09-23T15:16:42;3.03;;;1.80;;
21235;SDS011;10775;42.678;26.324;2022-09-23T15:19:11;2.50;;;1.52;;
21235;SDS011;10775;42.678;26.324;2022-09-23T15:21:43;2.58;;;1.55;;
21235;SDS011;10775;42.678;26.324;2022-09-23T15:27:27;4.55;;;1.70;;
21235;SDS011;10775;42.678;26.324;2022-09-23T15:30:01;2.92;;;1.80;;
21235;SDS011;10775;42.678;26.324;2022-09-23T15:32:27;2.40;;;1.73;;
21235;SDS011;10775;42.678;26.324;2022-09-23T15:34:53;2.85;;;1.98;;
21235;SDS011;10775;42.678;26.324;2022-09-23T15:37:19;2.83;;;1.40;;
21235;SDS011;10775;42.678;26.324;2022-09-23T15:39:44;2.95;;;1.83;;
21235;SDS011;10775;42.678;26.324;2022-09-23T15:42:10;2.28;;;1.55;;
21235;SDS011;10775;42.678;26.324;2022-09-23T15:44:36;4.00;;;1.90;;
21235;SDS011;10775;42.678;26.324;2022-09-23T15:47:02;2.67;;;1.60;;
21235;SDS011;10775;42.678;26.324;2022-09-23T15:49:32;4.43;;;2.20;;
21235;SDS011;10775;42.678;26.324;2022-09-23T15:52:06;2.35;;;1.42;;
21235;SDS011;10775;42.678;26.324;2022-09-23T15:54:34;1.75;;;1.40;;
21235;SDS011;10775;42.678;26.324;2022-09-23T15:57:00;6.00;;;3.10;;
21235;SDS011;10775;42.678;26.324;2022-09-23T15:59:29;2.60;;;2.10;;
21235;SDS011;10775;42.678;26.324;2022-09-23T16:01:55;1.75;;;1.38;;
21235;SDS011;10775;42.678;26.324;2022-09-23T16:04:23;3.58;;;2.20;;
21235;SDS011;10775;42.678;26.324;2022-09-23T16:06:52;2.65;;;1.58;;
21235;SDS011;10775;42.678;26.324;2022-09-23T16:09:18;2.65;;;1.80;;
21235;SDS011;10775;42.678;26.324;2022-09-23T16:11:44;2.33;;;1.83;;
21235;SDS011;10775;42.678;26.324;2022-09-23T16:14:13;4.25;;;1.90;;
21235;SDS011;10775;42.678;26.324;2022-09-23T16:16:40;2.70;;;1.60;;
21235;SDS011;10775;42.678;26.324;2022-09-23T16:19:09;1.92;;;1.70;;
21235;SDS011;10775;42.678;26.324;2022-09-23T16:21:36;3.70;;;1.55;;
21235;SDS011;10775;42.678;26.324;2022-09-23T16:24:05;2.90;;;1.98;;
21235;SDS011;10775;42.678;26.324;2022-09-23T16:26:43;2.72;;;2.10;;
21235;SDS011;10775;42.678;26.324;2022-09-23T16:29:10;2.63;;;2.03;;
21235;SDS011;10775;42.678;26.324;2022-09-23T16:31:36;2.88;;;1.90;;
21235;SDS011;10775;42.678;26.324;2022-09-23T16:34:02;2.97;;;2.08;;
21235;SDS011;10775;42.678;26.324;2022-09-23T16:36:30;5.15;;;2.90;;
21235;SDS011;10775;42.678;26.324;2022-09-23T16:38:57;4.15;;;2.30;;
21235;SDS011;10775;42.678;26.324;2022-09-23T16:41:25;3.72;;;1.70;;
21235;SDS011;10775;42.678;26.324;2022-09-23T16:43:58;1.60;;;1.50;;
21235;SDS011;10775;42.678;26.324;2022-09-23T16:46:25;2.55;;;1.50;;
21235;SDS011;10775;42.678;26.324;2022-09-23T16:48:53;4.20;;;2.55;;
21235;SDS011;10775;42.678;26.324;2022-09-23T16:51:20;4.63;;;2.60;;
21235;SDS011;10775;42.678;26.324;2022-09-23T16:53:48;2.90;;;1.83;;
21235;SDS011;10775;42.678;26.324;2022-09-23T16:56:15;4.38;;;1.77;;
21235;SDS011;10775;42.678;26.324;2022-09-23T16:58:44;5.72;;;2.63;;
21235;SDS011;10775;42.678;26.324;2022-09-23T17:01:13;5.03;;;2.28;;
21235;SDS011;10775;42.678;26.324;2022-09-23T17:04:01;3.35;;;1.63;;
21235;SDS011;10775;42.678;26.324;2022-09-23T17:06:27;3.83;;;1.85;;
21235;SDS011;10775;42.678;26.324;2022-09-23T17:08:53;3.55;;;1.70;;
21235;SDS011;10775;42.678;26.324;2022-09-23T17:11:19;2.45;;;1.58;;
21235;SDS011;10775;42.678;26.324;2022-09-23T17:13:46;1.95;;;1.30;;
21235;SDS011;10775;42.678;26.324;2022-09-23T17:16:23;1.75;;;1.20;;
21235;SDS011;10775;42.678;26.324;2022-09-23T17:18:53;1.70;;;1.08;;
21235;SDS011;10775;42.678;26.324;2022-09-23T17:21:23;1.65;;;1.27;;
21235;SDS011;10775;42.678;26.324;2022-09-23T17:23:54;2.55;;;1.60;;
21235;SDS011;10775;42.678;26.324;2022-09-23T17:26:20;2.45;;;1.42;;
21235;SDS011;10775;42.678;26.324;2022-09-23T17:28:48;1.35;;;1.25;;
21235;SDS011;10775;42.678;26.324;2022-09-23T17:31:18;1.70;;;1.42;;
21235;SDS011;10775;42.678;26.324;2022-09-23T17:33:46;1.40;;;1.27;;
21235;SDS011;10775;42.678;26.324;2022-09-23T17:36:12;1.90;;;1.58;;